createdAt,value
2022-09-15T00:01:21.639Z,25.50
2022-09-15T00:03:49.838Z,25.25
2022-09-15T00:06:17.775Z,24.75
2022-09-15T00:08:45.746Z,24.25
2022-09-15T00:11:17.163Z,26.25
2022-09-15T00:13:46.848Z,26.00
2022-09-15T00:16:15.518Z,21.50
2022-09-15T00:18:43.653Z,25.25
2022-09-15T00:21:12.979Z,25.00
2022-09-15T00:23:41.163Z,24.25
2022-09-15T00:26:09.872Z,26.75
2022-09-15T00:28:37.778Z,20.50
2022-09-15T00:31:08.032Z,21.00
2022-09-15T00:33:36.269Z,22.00
2022-09-15T00:36:05.409Z,22.25
2022-09-15T00:38:33.497Z,21.75
2022-09-15T00:41:01.517Z,18.25
2022-09-15T00:43:45.170Z,20.00
2022-09-15T00:46:14.540Z,19.50
2022-09-15T00:48:44.930Z,19.00
2022-09-15T00:51:13.430Z,20.00
2022-09-15T00:53:41.621Z,19.75
2022-09-15T00:56:09.535Z,20.50
2022-09-15T00:58:39.724Z,18.75
2022-09-15T01:01:08.167Z,18.75
2022-09-15T01:03:37.823Z,20.25
2022-09-15T01:06:10.351Z,20.00
2022-09-15T01:08:40.892Z,18.00
2022-09-15T01:11:08.786Z,17.00
2022-09-15T01:13:36.952Z,17.00
2022-09-15T01:16:09.438Z,19.50
2022-09-15T01:18:45.396Z,18.00
2022-09-15T01:21:28.160Z,18.00
2022-09-15T01:24:22.501Z,17.75
2022-09-15T01:30:10.319Z,16.75
2022-09-15T01:33:06.473Z,15.50
2022-09-15T01:35:43.262Z,15.00
2022-09-15T01:38:14.703Z,14.25
2022-09-15T01:40:46.007Z,13.75
2022-09-15T01:43:13.818Z,16.75
2022-09-15T01:45:43.437Z,12.25
2022-09-15T01:48:11.621Z,15.25
2022-09-15T01:50:43.451Z,15.00
2022-09-15T01:53:13.689Z,14.50
2022-09-15T01:55:42.667Z,13.75
2022-09-15T01:58:10.532Z,14.00
2022-09-15T02:00:39.737Z,15.25
2022-09-15T02:03:11.785Z,12.00
2022-09-15T02:05:41.145Z,12.50
2022-09-15T02:08:13.645Z,13.75
2022-09-15T02:10:43.907Z,13.00
2022-09-15T02:13:16.963Z,13.50
2022-09-15T02:15:47.075Z,12.25
2022-09-15T02:18:18.253Z,13.25
2022-09-15T02:20:49.342Z,12.25
2022-09-15T02:23:19.978Z,13.00
2022-09-15T02:25:51.615Z,12.00
2022-09-15T02:28:20.102Z,12.00
2022-09-15T02:30:47.975Z,9.25
2022-09-15T02:33:19.742Z,12.75
2022-09-15T02:35:47.651Z,13.00
2022-09-15T02:38:18.103Z,10.00
2022-09-15T02:40:46.980Z,12.75
2022-09-15T02:43:18.797Z,11.75
2022-09-15T02:45:46.991Z,11.50
2022-09-15T02:48:15.136Z,10.50
2022-09-15T02:50:44.417Z,11.00
2022-09-15T02:53:12.321Z,12.00
2022-09-15T02:55:40.150Z,9.25
2022-09-15T02:58:08.097Z,10.75
2022-09-15T03:00:38.558Z,9.25
2022-09-15T03:03:06.491Z,10.25
2022-09-15T03:05:34.370Z,11.75
2022-09-15T03:08:04.177Z,10.00
2022-09-15T03:10:32.724Z,11.00
2022-09-15T03:13:00.602Z,10.00
2022-09-15T03:15:28.512Z,11.00
2022-09-15T03:17:56.726Z,11.00
2022-09-15T03:20:27.335Z,8.75
2022-09-15T03:22:55.273Z,10.00
2022-09-15T03:25:26.878Z,10.75
2022-09-15T03:27:55.115Z,9.00
2022-09-15T03:30:22.998Z,7.75
2022-09-15T03:32:50.848Z,9.25
2022-09-15T03:35:18.836Z,7.00
2022-09-15T03:37:47.030Z,8.00
2022-09-15T03:40:14.996Z,8.00
2022-09-15T03:42:44.601Z,7.00
2022-09-15T03:45:12.470Z,8.25
2022-09-15T03:47:40.602Z,8.25
2022-09-15T03:50:08.827Z,8.00
2022-09-15T03:52:36.701Z,7.75
2022-09-15T03:55:04.699Z,6.50
2022-09-15T03:57:32.906Z,8.00
2022-09-15T04:00:02.201Z,5.25
2022-09-15T04:02:30.059Z,7.00
2022-09-15T04:04:58.060Z,7.75
2022-09-15T04:07:26.360Z,13.50
2022-09-15T04:09:54.399Z,21.75
2022-09-15T04:12:22.264Z,20.00
2022-09-15T04:14:50.157Z,32.00
2022-09-15T04:17:19.681Z,36.00
2022-09-15T04:19:47.553Z,27.25
2022-09-15T04:22:17.871Z,36.00
2022-09-15T04:24:48.025Z,38.00
2022-09-15T04:27:16.253Z,23.50
2022-09-15T04:29:44.182Z,29.75
2022-09-15T04:32:12.286Z,26.00
2022-09-15T04:34:41.681Z,28.25
2022-09-15T04:37:09.932Z,26.75
2022-09-15T04:39:37.807Z,31.75
2022-09-15T04:42:07.797Z,33.50
2022-09-15T04:44:35.683Z,40.75
2022-09-15T04:47:04.167Z,33.50
2022-09-15T04:49:32.052Z,33.75
2022-09-15T04:52:01.300Z,33.50
2022-09-15T04:54:29.207Z,34.25
2022-09-15T04:56:57.309Z,35.00
2022-09-15T04:59:25.180Z,36.50
2022-09-15T05:01:55.103Z,33.25
2022-09-15T05:04:24.273Z,32.75
2022-09-15T05:06:53.743Z,34.00
2022-09-15T05:09:23.354Z,33.50
2022-09-15T05:11:51.872Z,28.00
2022-09-15T05:14:19.793Z,27.75
2022-09-15T05:16:47.994Z,24.25
2022-09-15T05:19:15.811Z,29.75
2022-09-15T05:21:43.722Z,28.00
2022-09-15T05:24:11.601Z,26.25
2022-09-15T05:26:41.626Z,24.50
2022-09-15T05:29:09.551Z,27.50
2022-09-15T05:31:37.555Z,26.25
2022-09-15T05:34:05.991Z,24.75
2022-09-15T05:36:34.054Z,25.00
2022-09-15T05:39:02.455Z,26.75
2022-09-15T05:41:30.443Z,23.50
2022-09-15T05:43:59.845Z,26.50
2022-09-15T05:46:29.246Z,28.00
2022-09-15T05:48:57.977Z,27.00
2022-09-15T05:51:26.008Z,24.50
2022-09-15T05:53:54.229Z,23.50
2022-09-15T05:56:22.141Z,25.25
2022-09-15T05:58:50.140Z,26.50
2022-09-15T06:01:20.050Z,22.25
2022-09-15T06:03:47.955Z,26.00
2022-09-15T06:06:16.458Z,22.00
2022-09-15T06:08:47.978Z,20.25
2022-09-15T06:11:17.042Z,22.25
2022-09-15T06:13:46.492Z,20.25
2022-09-15T06:16:15.137Z,20.75
2022-09-15T06:18:44.673Z,22.00
2022-09-15T06:21:13.334Z,20.50
2022-09-15T06:23:41.234Z,18.75
2022-09-15T06:26:11.242Z,20.75
2022-09-15T06:28:39.380Z,23.00
2022-09-15T06:31:11.016Z,17.25
2022-09-15T06:33:38.904Z,19.75
2022-09-15T06:36:09.713Z,18.75
2022-09-15T06:38:37.600Z,16.50
2022-09-15T06:41:05.632Z,16.00
2022-09-15T06:43:33.625Z,19.25
2022-09-15T06:46:05.951Z,20.00
2022-09-15T06:48:33.852Z,14.75
2022-09-15T06:51:01.848Z,15.00
2022-09-15T06:53:31.604Z,14.25
2022-09-15T06:56:03.413Z,14.00
2022-09-15T06:58:31.363Z,15.75
2022-09-15T07:01:02.409Z,15.25
2022-09-15T07:03:30.515Z,14.00
2022-09-15T07:05:58.485Z,14.50
2022-09-15T07:08:26.660Z,13.00
2022-09-15T07:10:55.968Z,14.00
2022-09-15T07:13:23.856Z,13.25
2022-09-15T07:15:52.625Z,15.00
2022-09-15T07:18:20.545Z,13.00
2022-09-15T07:20:48.393Z,12.25
2022-09-15T07:23:16.281Z,12.00
2022-09-15T07:25:45.220Z,15.25
2022-09-15T07:28:14.890Z,12.50
2022-09-15T07:30:42.982Z,14.00
2022-09-15T07:33:12.433Z,14.00
2022-09-15T07:35:42.408Z,13.00
2022-09-15T07:38:10.643Z,13.00
2022-09-15T07:40:38.768Z,15.75
2022-09-15T07:43:06.682Z,12.50
2022-09-15T07:45:36.167Z,13.00
2022-09-15T07:48:04.223Z,11.50
2022-09-15T07:50:32.158Z,13.25
2022-09-15T07:53:00.383Z,12.00
2022-09-15T07:55:30.344Z,12.75
2022-09-15T07:57:59.563Z,10.75
2022-09-15T08:00:28.044Z,13.00
2022-09-15T08:02:57.419Z,15.00
2022-09-15T08:05:28.049Z,11.25
2022-09-15T08:07:56.723Z,12.00
2022-09-15T08:10:25.104Z,11.00
2022-09-15T08:12:53.011Z,9.75
2022-09-15T08:15:20.854Z,11.00
2022-09-15T08:17:49.026Z,11.75
2022-09-15T08:20:18.346Z,10.00
2022-09-15T08:22:47.602Z,10.00
2022-09-15T08:25:15.627Z,10.00
2022-09-15T08:27:43.973Z,10.00
2022-09-15T08:30:13.065Z,9.25
2022-09-15T08:32:40.995Z,9.25
2022-09-15T08:35:09.741Z,11.00
2022-09-15T08:37:39.891Z,10.00
2022-09-15T08:40:09.919Z,11.00
2022-09-15T08:42:41.596Z,10.50
2022-09-15T08:45:18.997Z,12.00
2022-09-15T08:47:47.057Z,9.25
2022-09-15T08:50:17.133Z,8.75
2022-09-15T08:52:49.216Z,9.00
2022-09-15T08:55:20.098Z,10.00
2022-09-15T08:57:48.467Z,9.75
2022-09-15T09:00:17.360Z,9.25
2022-09-15T09:02:56.260Z,8.25
2022-09-15T09:05:36.922Z,8.00
2022-09-15T09:08:15.446Z,9.25
2022-09-15T09:10:46.298Z,11.00
2022-09-15T09:13:20.994Z,9.00
2022-09-15T09:15:55.594Z,8.75
2022-09-15T09:18:52.143Z,9.25
2022-09-15T09:21:23.487Z,9.00
2022-09-15T09:23:56.100Z,9.00
2022-09-15T09:26:24.452Z,8.00
2022-09-15T09:28:55.391Z,9.00
2022-09-15T09:31:25.262Z,8.00
2022-09-15T09:33:54.914Z,9.00
2022-09-15T09:36:23.164Z,9.00
2022-09-15T09:38:52.428Z,8.25
2022-09-15T09:41:26.920Z,7.75
2022-09-15T09:43:55.427Z,8.00
2022-09-15T09:46:24.017Z,9.00
2022-09-15T09:48:54.509Z,9.00
2022-09-15T09:51:36.202Z,9.00
2022-09-15T09:54:19.749Z,7.25
2022-09-15T09:56:48.137Z,8.50
2022-09-15T09:59:42.726Z,9.25
2022-09-15T10:02:18.288Z,8.00
2022-09-15T10:04:46.614Z,7.75
2022-09-15T10:07:15.500Z,9.75
2022-09-15T10:09:52.559Z,7.75
2022-09-15T10:12:22.526Z,9.00
2022-09-15T10:14:52.651Z,8.50
2022-09-15T10:17:22.118Z,7.00
2022-09-15T10:19:50.964Z,8.50
2022-09-15T10:22:23.624Z,8.50
2022-09-15T10:24:53.261Z,7.50
2022-09-15T10:27:26.881Z,7.25
2022-09-15T10:29:54.821Z,7.00
2022-09-15T10:32:27.682Z,9.00
2022-09-15T10:35:03.153Z,7.25
2022-09-15T10:37:44.709Z,7.75
2022-09-15T10:40:32.964Z,7.00
2022-09-15T10:43:07.346Z,8.50
2022-09-15T10:45:39.410Z,6.25
2022-09-15T10:48:18.187Z,6.75
2022-09-15T10:50:55.179Z,6.00
2022-09-15T10:53:32.980Z,7.00
2022-09-15T10:56:04.747Z,6.00
2022-09-15T10:58:45.958Z,7.50
2022-09-15T11:01:23.842Z,7.25
2022-09-15T11:04:25.599Z,6.50
2022-09-15T11:06:56.511Z,7.00
2022-09-15T11:09:26.113Z,5.00
2022-09-15T11:12:00.733Z,6.00
2022-09-15T11:14:38.128Z,6.25
2022-09-15T11:17:17.584Z,5.75
2022-09-15T11:19:56.293Z,8.00
2022-09-15T11:22:25.443Z,6.25
2022-09-15T11:24:55.001Z,5.75
2022-09-15T11:27:26.669Z,6.00
2022-09-15T11:30:03.782Z,5.25
2022-09-15T11:32:35.551Z,7.00
2022-09-15T11:35:09.563Z,6.00
2022-09-15T11:37:39.788Z,5.50
2022-09-15T11:40:13.337Z,4.00
2022-09-15T11:42:45.032Z,6.00
2022-09-15T11:45:15.937Z,6.00
2022-09-15T11:47:45.129Z,4.50
2022-09-15T11:50:16.514Z,5.75
2022-09-15T11:52:48.259Z,5.50
2022-09-15T11:55:22.768Z,6.00
2022-09-15T11:57:55.567Z,5.75
2022-09-15T12:00:23.406Z,6.00
2022-09-15T12:02:54.497Z,5.00
2022-09-15T12:05:24.441Z,4.75
2022-09-15T12:07:55.501Z,6.00
2022-09-15T12:10:26.265Z,6.00
2022-09-15T12:12:58.610Z,5.75
2022-09-15T12:15:28.149Z,5.50
2022-09-15T12:18:06.543Z,5.25
2022-09-15T12:20:52.132Z,5.00
2022-09-15T12:23:23.588Z,6.25
2022-09-15T12:25:59.379Z,5.00
2022-09-15T12:28:41.455Z,4.50
2022-09-15T12:31:14.260Z,4.00
2022-09-15T12:33:45.561Z,4.00
2022-09-15T12:36:33.104Z,5.25
2022-09-15T12:39:01.172Z,5.00
2022-09-15T12:41:29.445Z,4.00
2022-09-15T12:43:59.644Z,4.75
2022-09-15T12:46:27.582Z,5.00
2022-09-15T12:48:56.914Z,5.00
2022-09-15T12:51:26.198Z,4.75
2022-09-15T12:53:56.125Z,4.00
2022-09-15T12:56:25.435Z,4.50
2022-09-15T12:58:53.318Z,5.00
2022-09-15T13:01:33.463Z,4.00
2022-09-15T13:04:29.488Z,4.00
2022-09-15T13:07:32.566Z,5.75
2022-09-15T13:10:01.372Z,4.00
2022-09-15T13:12:32.836Z,4.50
2022-09-15T13:15:03.018Z,4.00
2022-09-15T13:17:33.108Z,4.50
2022-09-15T13:20:02.799Z,4.00
2022-09-15T13:22:32.040Z,5.00
2022-09-15T13:25:02.026Z,5.00
2022-09-15T13:27:34.060Z,4.00
2022-09-15T13:30:04.927Z,5.00
2022-09-15T13:32:41.819Z,4.00
2022-09-15T13:35:43.858Z,4.00
2022-09-15T13:38:50.306Z,4.00
2022-09-15T13:41:42.978Z,5.00
2022-09-15T13:44:32.511Z,5.00
2022-09-15T13:47:12.100Z,3.00
2022-09-15T13:49:50.169Z,3.75
2022-09-15T13:52:47.974Z,4.25
2022-09-15T13:55:21.694Z,3.00
2022-09-15T14:00:46.413Z,4.00
2022-09-15T14:03:16.300Z,3.75
2022-09-15T14:05:45.553Z,4.00
2022-09-15T14:08:15.214Z,3.75
2022-09-15T14:10:46.947Z,3.75
2022-09-15T14:13:15.457Z,4.00
2022-09-15T14:15:43.321Z,2.50
2022-09-15T14:18:20.079Z,4.00
2022-09-15T14:20:57.890Z,3.50
2022-09-15T14:23:25.879Z,4.00
2022-09-15T14:25:53.820Z,4.50
2022-09-15T14:28:30.805Z,4.00
2022-09-15T14:30:59.514Z,3.25
2022-09-15T14:33:27.448Z,2.50
2022-09-15T14:35:56.667Z,5.00
2022-09-15T14:38:25.287Z,3.75
2022-09-15T14:40:54.548Z,4.75
2022-09-15T14:43:26.512Z,3.00
2022-09-15T14:46:02.614Z,3.00
2022-09-15T14:48:34.305Z,3.00
2022-09-15T14:51:07.036Z,3.75
2022-09-15T14:53:35.582Z,4.00
2022-09-15T14:56:08.091Z,3.00
2022-09-15T14:58:37.330Z,2.75
2022-09-15T15:01:07.944Z,3.00
2022-09-15T15:03:39.184Z,3.75
2022-09-15T15:06:33.357Z,3.00
2022-09-15T15:08:59.240Z,3.00
2022-09-15T15:11:27.134Z,3.50
2022-09-15T15:13:56.606Z,2.75
2022-09-15T15:16:25.710Z,3.00
2022-09-15T15:18:56.002Z,3.00
2022-09-15T15:21:39.279Z,4.00
2022-09-15T15:24:16.259Z,3.00
2022-09-15T15:26:44.919Z,3.00
2022-09-15T15:29:40.840Z,3.00
2022-09-15T15:32:12.889Z,4.00
2022-09-15T15:34:40.738Z,4.00
2022-09-15T15:37:16.313Z,9.75
2022-09-15T15:39:46.620Z,12.50
2022-09-15T15:42:16.389Z,16.25
2022-09-15T15:45:00.163Z,16.50
2022-09-15T15:47:29.816Z,8.00
2022-09-15T15:50:16.111Z,8.50
2022-09-15T15:52:45.762Z,7.50
2022-09-15T15:55:16.982Z,6.75
2022-09-15T15:57:45.146Z,6.00
2022-09-15T16:00:21.491Z,7.00
2022-09-15T16:02:49.859Z,13.00
2022-09-15T16:05:17.892Z,13.75
2022-09-15T16:07:47.490Z,11.75
2022-09-15T16:10:16.742Z,15.00
2022-09-15T16:12:44.790Z,13.75
2022-09-15T16:15:14.296Z,15.00
2022-09-15T16:17:46.024Z,12.00
2022-09-15T16:20:16.013Z,13.00
2022-09-15T16:22:44.267Z,12.00
2022-09-15T16:25:15.992Z,13.00
2022-09-15T16:27:43.874Z,8.75
2022-09-15T16:30:13.070Z,13.75
2022-09-15T16:32:41.304Z,11.75
2022-09-15T16:35:24.063Z,11.75
2022-09-15T16:37:52.215Z,13.00
2022-09-15T16:40:21.510Z,10.75
2022-09-15T16:42:49.468Z,10.75
2022-09-15T16:45:20.329Z,11.75
2022-09-15T16:47:48.696Z,12.00
2022-09-15T16:50:16.667Z,8.75
2022-09-15T16:52:44.659Z,9.50
2022-09-15T16:55:24.348Z,10.50
2022-09-15T16:57:52.219Z,8.75
2022-09-15T17:00:20.432Z,9.00
2022-09-15T17:02:48.264Z,7.25
2022-09-15T17:05:18.471Z,10.00
2022-09-15T17:07:46.353Z,8.25
2022-09-15T17:10:14.536Z,8.00
2022-09-15T17:12:43.925Z,8.00
2022-09-15T17:15:22.928Z,8.25
2022-09-15T17:17:50.823Z,6.50
2022-09-15T17:20:19.625Z,9.25
2022-09-15T17:22:47.556Z,8.50
2022-09-15T17:25:31.690Z,7.00
2022-09-15T17:28:00.900Z,7.50
2022-09-15T17:30:30.246Z,8.50
2022-09-15T17:33:04.618Z,8.00
2022-09-15T17:35:33.482Z,10.50
2022-09-15T17:38:01.527Z,9.75
2022-09-15T17:40:29.417Z,11.00
2022-09-15T17:42:57.399Z,10.25
2022-09-15T17:45:28.222Z,9.50
2022-09-15T17:47:56.070Z,9.50
2022-09-15T17:50:25.731Z,8.50
2022-09-15T17:52:53.622Z,9.00
2022-09-15T17:55:22.598Z,9.75
2022-09-15T17:57:50.592Z,9.00
2022-09-15T18:00:19.196Z,9.00
2022-09-15T18:02:50.983Z,7.00
2022-09-15T18:05:23.597Z,7.00
2022-09-15T18:07:51.614Z,8.50
2022-09-15T18:10:19.468Z,9.25
2022-09-15T18:12:49.196Z,8.00
2022-09-15T18:15:21.108Z,7.75
2022-09-15T18:17:50.740Z,7.00
2022-09-15T18:20:19.962Z,8.00
2022-09-15T18:22:48.083Z,7.00
2022-09-15T18:25:19.987Z,7.25
2022-09-15T18:27:49.349Z,9.50
2022-09-15T18:30:17.739Z,9.00
2022-09-15T18:32:45.713Z,11.00
2022-09-15T18:35:18.494Z,12.50
2022-09-15T18:37:47.041Z,11.50
2022-09-15T18:40:18.379Z,8.75
2022-09-15T18:42:46.290Z,11.25
2022-09-15T18:45:14.940Z,10.00
2022-09-15T18:47:43.368Z,11.00
2022-09-15T18:50:14.226Z,9.75
2022-09-15T18:52:42.126Z,10.75
2022-09-15T18:55:11.024Z,8.75
2022-09-15T18:57:39.590Z,10.25
2022-09-15T19:00:15.006Z,11.25
2022-09-15T19:02:42.917Z,10.25
2022-09-15T19:05:12.384Z,9.00
2022-09-15T19:07:41.683Z,12.75
2022-09-15T19:10:10.860Z,13.00
2022-09-15T19:12:38.999Z,15.25
2022-09-15T19:15:10.985Z,14.75
2022-09-15T19:17:40.223Z,13.75
2022-09-15T19:20:08.955Z,13.00
2022-09-15T19:22:36.968Z,13.75
2022-09-15T19:25:07.153Z,14.75
2022-09-15T19:27:35.139Z,12.25
2022-09-15T19:30:03.401Z,11.50
2022-09-15T19:32:31.310Z,9.75
2022-09-15T19:34:59.195Z,9.50
2022-09-15T19:37:27.332Z,11.75
2022-09-15T19:39:55.291Z,10.75
2022-09-15T19:42:24.894Z,10.00
2022-09-15T19:44:52.778Z,10.00
2022-09-15T19:47:20.604Z,11.75
2022-09-15T19:49:48.538Z,12.75
2022-09-15T19:52:16.763Z,12.00
2022-09-15T19:54:44.629Z,12.75
2022-09-15T19:57:12.531Z,14.50
2022-09-15T19:59:41.823Z,11.00
2022-09-15T20:02:10.646Z,11.25
2022-09-15T20:04:39.305Z,13.25
2022-09-15T20:07:07.288Z,12.00
2022-09-15T20:09:35.238Z,12.00
2022-09-15T20:12:03.861Z,9.50
2022-09-15T20:14:31.844Z,11.25
2022-09-15T20:17:01.804Z,11.00
2022-09-15T20:19:29.924Z,9.50
2022-09-15T20:21:58.112Z,12.00
2022-09-15T20:24:26.022Z,9.75
2022-09-15T20:26:53.860Z,11.00
2022-09-15T20:29:23.197Z,9.75
2022-09-15T20:31:51.127Z,9.50
2022-09-15T20:34:20.429Z,9.50
2022-09-15T20:36:48.364Z,10.00
2022-09-15T20:39:18.714Z,13.00
2022-09-15T20:41:46.855Z,11.25
2022-09-15T20:44:14.902Z,12.00
2022-09-15T20:46:42.789Z,12.00
2022-09-15T20:49:11.260Z,10.50
2022-09-15T20:51:40.600Z,11.75
2022-09-15T20:54:08.460Z,12.25
2022-09-15T20:56:36.553Z,12.25
2022-09-15T20:59:04.846Z,10.25
2022-09-15T21:01:34.301Z,11.25
2022-09-15T21:04:02.631Z,10.50
2022-09-15T21:06:30.556Z,11.50
2022-09-15T21:09:00.266Z,12.75
2022-09-15T21:11:28.997Z,12.00
2022-09-15T21:13:57.157Z,10.75
2022-09-15T21:16:26.152Z,12.75
2022-09-15T21:18:54.115Z,11.00
2022-09-15T21:21:22.934Z,13.00
2022-09-15T21:23:51.427Z,13.75
2022-09-15T21:26:21.312Z,13.00
2022-09-15T21:28:49.551Z,12.75
2022-09-15T21:31:18.309Z,12.75
2022-09-15T21:33:46.629Z,13.00
2022-09-15T21:36:18.043Z,13.75
2022-09-15T21:38:46.025Z,15.75
2022-09-15T21:41:15.291Z,15.25
2022-09-15T21:43:45.575Z,14.75
2022-09-15T21:46:14.172Z,16.00
2022-09-15T21:48:42.285Z,15.25
2022-09-15T21:51:11.809Z,15.00
2022-09-15T21:53:39.666Z,14.50
2022-09-15T21:56:08.996Z,14.50
2022-09-15T21:58:42.287Z,14.75
2022-09-15T22:01:13.294Z,12.50
2022-09-15T22:03:42.547Z,14.25
2022-09-15T22:06:11.201Z,16.00
2022-09-15T22:08:39.270Z,13.50
2022-09-15T22:11:07.577Z,15.00
2022-09-15T22:13:36.271Z,15.00
2022-09-15T22:16:04.403Z,13.00
2022-09-15T22:18:33.757Z,13.75
2022-09-15T22:21:06.593Z,14.50
2022-09-15T22:23:34.484Z,14.00
2022-09-15T22:26:03.826Z,10.25
2022-09-15T22:28:32.257Z,14.00
2022-09-15T22:31:00.690Z,13.25
2022-09-15T22:33:28.667Z,12.75
2022-09-15T22:35:58.014Z,11.25
2022-09-15T22:38:26.091Z,11.00
2022-09-15T22:40:54.235Z,13.25
2022-09-15T22:43:22.127Z,10.50
2022-09-15T22:45:50.100Z,11.75
2022-09-15T22:48:18.093Z,11.00
2022-09-15T22:50:46.352Z,8.75
2022-09-15T22:53:15.823Z,8.75
2022-09-15T22:55:43.720Z,9.75
2022-09-15T22:58:11.572Z,8.75
2022-09-15T23:00:40.003Z,9.50
2022-09-15T23:03:07.930Z,8.75
2022-09-15T23:05:35.800Z,9.00
2022-09-15T23:08:04.103Z,9.50
2022-09-15T23:10:33.672Z,8.00
2022-09-15T23:13:01.572Z,9.75
2022-09-15T23:15:29.992Z,7.75
2022-09-15T23:17:57.873Z,7.75
2022-09-15T23:20:26.010Z,8.00
2022-09-15T23:22:54.085Z,9.50
2022-09-15T23:25:22.089Z,7.50
2022-09-15T23:27:51.369Z,7.00
2022-09-15T23:30:19.315Z,7.50
2022-09-15T23:32:47.203Z,8.00
2022-09-15T23:35:15.217Z,6.75
2022-09-15T23:37:43.119Z,6.00
2022-09-15T23:40:12.178Z,6.50
2022-09-15T23:42:40.081Z,7.25
2022-09-15T23:45:12.754Z,7.00
2022-09-15T23:47:40.609Z,7.00
2022-09-15T23:50:09.409Z,8.00
2022-09-15T23:52:37.521Z,7.00
2022-09-15T23:55:06.242Z,6.25
2022-09-15T23:57:34.800Z,5.50
